createdAt,value
2023-04-13T05:03:04.245Z,94975.00
2023-04-13T05:04:04.227Z,94979.00
2023-04-13T05:05:05.290Z,94977.00
2023-04-13T05:06:05.268Z,94979.00
2023-04-13T05:07:05.287Z,94981.00
2023-04-13T05:08:04.370Z,94981.00
2023-04-13T05:09:04.398Z,94983.00
2023-04-13T05:10:05.365Z,94983.00
2023-04-13T05:11:04.403Z,94986.00
2023-04-13T05:12:04.475Z,94985.00
2023-04-13T05:13:05.544Z,94990.00
2023-04-13T05:14:05.575Z,94990.00
2023-04-13T05:15:05.664Z,94990.00
2023-04-13T05:16:05.778Z,94992.00
2023-04-13T05:17:05.732Z,94998.00
2023-04-13T05:18:04.852Z,94998.00
2023-04-13T05:19:04.848Z,94998.00
2023-04-13T05:20:05.903Z,94998.00
2023-04-13T05:21:04.921Z,95000.00
2023-04-13T05:22:05.962Z,94998.00
2023-04-13T05:23:05.025Z,95004.00
2023-04-13T05:24:06.051Z,95006.00
2023-04-13T05:25:06.093Z,95010.00
2023-04-13T05:26:06.133Z,95010.00
2023-04-13T05:27:06.165Z,95012.00
2023-04-13T05:28:05.201Z,95012.00
2023-04-13T05:29:06.264Z,95016.00
2023-04-13T05:30:05.416Z,95018.00
2023-04-13T05:31:06.342Z,95020.00
2023-04-13T05:32:05.463Z,95020.00
2023-04-13T05:33:06.542Z,95026.00
2023-04-13T05:34:05.456Z,95028.00
2023-04-13T05:35:05.548Z,95033.00
2023-04-13T05:36:05.557Z,95035.00
2023-04-13T05:37:05.584Z,95041.00
2023-04-13T05:38:05.619Z,95041.00
2023-04-13T05:39:05.650Z,95045.00
2023-04-13T05:40:05.693Z,95045.00
2023-04-13T05:41:05.747Z,95049.00
2023-04-13T05:42:06.775Z,95055.00
2023-04-13T05:43:06.811Z,95057.00
2023-04-13T05:44:06.863Z,95057.00
2023-04-13T05:45:06.889Z,95059.00
2023-04-13T05:46:06.981Z,95059.00
2023-04-13T05:47:06.988Z,95061.00
2023-04-13T05:48:06.107Z,95061.00
2023-04-13T05:49:07.067Z,95061.00
2023-04-13T05:50:07.109Z,95061.00
2023-04-13T05:51:06.170Z,95061.00
2023-04-13T05:52:06.189Z,95063.00
2023-04-13T05:53:07.230Z,95063.00
2023-04-13T05:54:07.290Z,95061.00
2023-04-13T05:55:06.345Z,95065.00
2023-04-13T05:56:07.370Z,95067.00
2023-04-13T05:57:07.413Z,95067.00
2023-04-13T05:58:07.462Z,95069.00
2023-04-13T05:59:06.504Z,95069.00
2023-04-13T06:00:06.836Z,95071.00
2023-04-13T06:01:07.612Z,95069.00
2023-04-13T06:02:06.716Z,95074.00
2023-04-13T06:03:06.909Z,95074.00
2023-04-13T06:04:07.099Z,95077.00
2023-04-13T06:05:06.873Z,95077.00
2023-04-13T06:06:07.876Z,95074.00
2023-04-13T06:07:07.976Z,95074.00
2023-04-13T06:08:06.973Z,95077.00
2023-04-13T06:09:07.996Z,95080.00
2023-04-13T06:10:08.029Z,95080.00
2023-04-13T06:11:08.033Z,95084.00
2023-04-13T06:12:07.024Z,95084.00
2023-04-13T06:13:07.045Z,95086.00
2023-04-13T06:14:08.034Z,95084.00
2023-04-13T06:15:08.045Z,95086.00
2023-04-13T06:16:08.020Z,95084.00
2023-04-13T06:17:07.133Z,95086.00
2023-04-13T06:18:08.101Z,95084.00
2023-04-13T06:19:07.035Z,95088.00
2023-04-13T06:20:08.049Z,95086.00
2023-04-13T06:21:08.021Z,95082.00
2023-04-13T06:22:08.067Z,95080.00
2023-04-13T06:23:08.061Z,95080.00
2023-04-13T06:24:08.040Z,95080.00
2023-04-13T06:25:07.059Z,95079.00
2023-04-13T06:26:08.080Z,95080.00
2023-04-13T06:27:07.081Z,95082.00
2023-04-13T06:28:08.079Z,95086.00
2023-04-13T06:29:07.076Z,95088.00
2023-04-13T06:30:08.130Z,95088.00
2023-04-13T06:31:07.186Z,95092.00
2023-04-13T06:32:07.168Z,95090.00
2023-04-13T06:33:08.181Z,95090.00
2023-04-13T06:34:07.211Z,95092.00
2023-04-13T06:35:07.228Z,95092.00
2023-04-13T06:36:07.231Z,95094.00
2023-04-13T06:37:08.222Z,95092.00
2023-04-13T06:38:08.233Z,95094.00
2023-04-13T06:39:08.259Z,95092.00
2023-04-13T06:40:07.260Z,95092.00
2023-04-13T06:41:08.267Z,95094.00
2023-04-13T06:42:08.256Z,95094.00
2023-04-13T06:43:13.462Z,95094.00
2023-04-13T06:44:08.263Z,95096.00
2023-04-13T06:45:08.260Z,95096.00
2023-04-13T06:46:08.295Z,95092.00
2023-04-13T06:47:07.236Z,95090.00
2023-04-13T06:48:07.270Z,95088.00
2023-04-13T06:49:07.242Z,95084.00
2023-04-13T06:50:07.234Z,95077.00
2023-04-13T06:51:08.222Z,95077.00
2023-04-13T06:52:08.211Z,95071.00
2023-04-13T06:53:07.210Z,95074.00
2023-04-13T06:54:08.205Z,95077.00
2023-04-13T06:55:08.227Z,95074.00
2023-04-13T06:56:07.192Z,95074.00
2023-04-13T06:57:07.185Z,95079.00
2023-04-13T06:58:07.183Z,95074.00
2023-04-13T06:59:08.520Z,95072.00
2023-04-13T07:00:15.407Z,95071.00
2023-04-13T07:01:08.244Z,95069.00
2023-04-13T07:02:07.177Z,95071.00
2023-04-13T07:03:08.395Z,95069.00
2023-04-13T07:04:08.269Z,95067.00
2023-04-13T07:05:07.194Z,95065.00
2023-04-13T07:06:07.152Z,95067.00
2023-04-13T07:07:07.116Z,95065.00
2023-04-13T07:08:07.122Z,95065.00
2023-04-13T07:09:07.114Z,95065.00
2023-04-13T07:10:07.088Z,95063.00
2023-04-13T07:11:08.150Z,95065.00
2023-04-13T07:12:08.086Z,95063.00
2023-04-13T07:13:08.062Z,95065.00
2023-04-13T07:14:08.063Z,95069.00
2023-04-13T07:15:07.061Z,95071.00
2023-04-13T07:16:07.069Z,95067.00
2023-04-13T07:17:08.042Z,95067.00
2023-04-13T07:18:07.031Z,95063.00
2023-04-13T07:19:07.060Z,95065.00
2023-04-13T07:20:08.020Z,95063.00
2023-04-13T07:21:07.036Z,95061.00
2023-04-13T07:22:08.002Z,95061.00
2023-04-13T07:23:07.003Z,95059.00
2023-04-13T07:24:07.005Z,95059.00
2023-04-13T07:25:07.992Z,95061.00
2023-04-13T07:26:06.993Z,95059.00
2023-04-13T07:27:08.134Z,95061.00
2023-04-13T07:28:06.963Z,95063.00
2023-04-13T07:29:07.032Z,95065.00
2023-04-13T07:30:07.956Z,95063.00
2023-04-13T07:31:07.017Z,95061.00
2023-04-13T07:32:07.938Z,95063.00
2023-04-13T07:33:07.957Z,95061.00
2023-04-13T07:34:06.949Z,95057.00
2023-04-13T07:35:07.915Z,95049.00
2023-04-13T07:36:07.919Z,95047.00
2023-04-13T07:37:07.948Z,95051.00
2023-04-13T07:38:07.893Z,95047.00
2023-04-13T07:39:07.892Z,95049.00
2023-04-13T07:40:07.870Z,95049.00
2023-04-13T07:41:07.869Z,95049.00
2023-04-13T07:42:07.860Z,95051.00
2023-04-13T07:43:06.970Z,95051.00
2023-04-13T07:44:06.858Z,95049.00
2023-04-13T07:45:07.832Z,95049.00
2023-04-13T07:46:06.873Z,95049.00
2023-04-13T07:47:06.888Z,95053.00
2023-04-13T07:48:07.849Z,95055.00
2023-04-13T07:49:06.815Z,95055.00
2023-04-13T07:50:06.801Z,95055.00
2023-04-13T07:51:06.855Z,95057.00
2023-04-13T07:52:06.791Z,95059.00
2023-04-13T07:53:06.789Z,95059.00
2023-04-13T07:54:07.846Z,95061.00
2023-04-13T07:55:06.769Z,95061.00
2023-04-13T07:56:07.762Z,95059.00
2023-04-13T07:57:07.806Z,95061.00
2023-04-13T07:58:07.751Z,95061.00
2023-04-13T07:59:06.789Z,95061.00
2023-04-13T08:00:07.729Z,95063.00
2023-04-13T08:01:07.858Z,95061.00
2023-04-13T08:02:06.744Z,95061.00
2023-04-13T08:03:06.828Z,95057.00
2023-04-13T08:04:06.857Z,95061.00
2023-04-13T08:05:07.954Z,95055.00
2023-04-13T08:06:07.761Z,95055.00
2023-04-13T08:07:07.772Z,95059.00
2023-04-13T08:08:07.837Z,95057.00
2023-04-13T08:09:07.880Z,95059.00
2023-04-13T08:10:06.970Z,95059.00
2023-04-13T08:11:07.933Z,95061.00
2023-04-13T08:12:07.942Z,95061.00
2023-04-13T08:13:07.976Z,95063.00
2023-04-13T08:14:07.988Z,95063.00
2023-04-13T08:15:07.016Z,95065.00
2023-04-13T08:16:08.066Z,95063.00
2023-04-13T08:17:08.029Z,95063.00
2023-04-13T08:18:06.996Z,95063.00
2023-04-13T08:19:07.002Z,95065.00
2023-04-13T08:20:08.033Z,95065.00
2023-04-13T08:21:08.049Z,95061.00
2023-04-13T08:22:08.043Z,95061.00
2023-04-13T08:23:08.429Z,95061.00
2023-04-13T08:24:08.047Z,95061.00
2023-04-13T08:25:07.057Z,95061.00
2023-04-13T08:26:08.162Z,95061.00
2023-04-13T08:27:07.066Z,95061.00
2023-04-13T08:28:08.071Z,95057.00
2023-04-13T08:29:07.153Z,95055.00
2023-04-13T08:30:07.118Z,95057.00
2023-04-13T08:31:07.166Z,95055.00
2023-04-13T08:32:08.254Z,95053.00
2023-04-13T08:33:08.212Z,95049.00
2023-04-13T08:34:08.244Z,95047.00
2023-04-13T08:35:08.269Z,95045.00
2023-04-13T08:36:08.303Z,95039.00
2023-04-13T08:37:08.341Z,95035.00
2023-04-13T08:38:08.389Z,95032.00
2023-04-13T08:39:07.405Z,95030.00
2023-04-13T08:40:08.406Z,95028.00
2023-04-13T08:41:07.453Z,95024.00
2023-04-13T08:42:08.085Z,95030.00
2023-04-13T08:43:08.831Z,95032.00
2023-04-13T08:44:08.515Z,95033.00
2023-04-13T08:45:08.513Z,95032.00
2023-04-13T08:46:08.595Z,95030.00
2023-04-13T08:47:08.643Z,95030.00
2023-04-13T08:48:07.619Z,95032.00
2023-04-13T08:49:08.702Z,95026.00
2023-04-13T08:50:08.577Z,95030.00
2023-04-13T08:51:08.585Z,95028.00
2023-04-13T08:52:08.582Z,95026.00
2023-04-13T08:53:07.624Z,95024.00
2023-04-13T08:54:08.592Z,95024.00
2023-04-13T08:55:07.599Z,95020.00
2023-04-13T08:56:08.604Z,95012.00
2023-04-13T08:57:08.873Z,95014.00
2023-04-13T08:58:08.646Z,95012.00
2023-04-13T08:59:07.656Z,95010.00
2023-04-13T09:00:09.134Z,95008.00
2023-04-13T09:01:07.792Z,95006.00
2023-04-13T09:02:08.808Z,95006.00
2023-04-13T09:03:09.693Z,95006.00
2023-04-13T09:04:08.839Z,95002.00
2023-04-13T09:05:08.803Z,95000.00
2023-04-13T09:06:08.668Z,94994.00
2023-04-13T09:07:08.691Z,94994.00
2023-04-13T09:08:08.657Z,94992.00
2023-04-13T09:09:07.709Z,94990.00
2023-04-13T09:10:07.669Z,94988.00
2023-04-13T09:11:08.631Z,94990.00
2023-04-13T09:12:07.661Z,94986.00
2023-04-13T09:13:08.641Z,94986.00
2023-04-13T09:14:07.624Z,94986.00
2023-04-13T09:15:08.606Z,94988.00
2023-04-13T09:16:08.593Z,94985.00
2023-04-13T09:17:07.648Z,94983.00
2023-04-13T09:18:08.617Z,94981.00
2023-04-13T09:19:08.727Z,94981.00
2023-04-13T09:20:08.675Z,94981.00
2023-04-13T09:21:07.730Z,94979.00
2023-04-13T09:22:08.786Z,94977.00
2023-04-13T09:23:08.841Z,94979.00
2023-04-13T09:24:07.892Z,94979.00
2023-04-13T09:25:08.928Z,94979.00
2023-04-13T09:26:09.017Z,94979.00
2023-04-13T09:27:09.035Z,94981.00
2023-04-13T09:28:09.076Z,94979.00
2023-04-13T09:29:09.142Z,94981.00
2023-04-13T09:30:08.189Z,94979.00
2023-04-13T09:31:08.268Z,94979.00
2023-04-13T09:32:08.291Z,94979.00
2023-04-13T09:33:09.421Z,94975.00
2023-04-13T09:34:09.366Z,94977.00
2023-04-13T09:35:08.493Z,94977.00
2023-04-13T09:36:09.477Z,94977.00
2023-04-13T09:37:08.524Z,94975.00
2023-04-13T09:38:09.555Z,94973.00
2023-04-13T09:39:08.603Z,94969.00
2023-04-13T09:40:08.625Z,94967.00
2023-04-13T09:41:09.637Z,94963.00
2023-04-13T09:42:08.715Z,94963.00
2023-04-13T09:43:08.727Z,94959.00
2023-04-13T09:44:09.762Z,94955.00
2023-04-13T09:45:09.796Z,94953.00
2023-04-13T09:46:09.874Z,94949.00
2023-04-13T09:47:09.892Z,94949.00
2023-04-13T09:48:09.857Z,94947.00
2023-04-13T09:49:09.888Z,94941.00
2023-04-13T09:50:09.890Z,94941.00
2023-04-13T09:51:08.955Z,94938.00
2023-04-13T09:52:10.402Z,94938.00
2023-04-13T09:53:09.959Z,94934.00
2023-04-13T09:54:10.010Z,94932.00
2023-04-13T09:55:09.025Z,94926.00
2023-04-13T09:56:09.085Z,94924.00
2023-04-13T09:57:09.123Z,94922.00
2023-04-13T09:58:09.171Z,94924.00
2023-04-13T09:59:10.223Z,94920.00
2023-04-13T10:00:09.275Z,94918.00
2023-04-13T10:01:10.363Z,94918.00
2023-04-13T10:02:09.516Z,94908.00
2023-04-13T10:03:09.513Z,94916.00
2023-04-13T10:04:09.448Z,94908.00
2023-04-13T10:05:09.610Z,94904.00
2023-04-13T10:06:09.521Z,94904.00
2023-04-13T10:07:10.603Z,94908.00
2023-04-13T10:08:09.587Z,94906.00
2023-04-13T10:09:09.565Z,94904.00
2023-04-13T10:10:10.592Z,94906.00
2023-04-13T10:11:09.625Z,94916.00
2023-04-13T10:12:10.663Z,94908.00
2023-04-13T10:13:09.723Z,94908.00
2023-04-13T10:14:09.743Z,94908.00
2023-04-13T10:15:10.784Z,94906.00
2023-04-13T10:16:10.863Z,94908.00
2023-04-13T10:17:10.886Z,94916.00
2023-04-13T10:18:11.061Z,94908.00
2023-04-13T10:19:09.924Z,94908.00
2023-04-13T10:20:09.955Z,94906.00
2023-04-13T10:21:11.009Z,94906.00
2023-04-13T10:22:11.083Z,94908.00
2023-04-13T10:23:11.136Z,94906.00
2023-04-13T10:24:11.980Z,94906.00
2023-04-13T10:25:16.194Z,94904.00
2023-04-13T10:26:11.217Z,94902.00
2023-04-13T10:27:11.288Z,94902.00
2023-04-13T10:28:10.196Z,94896.00
2023-04-13T10:29:10.224Z,94892.00
2023-04-13T10:30:11.182Z,94894.00
2023-04-13T10:31:11.182Z,94894.00
2023-04-13T10:32:11.195Z,94894.00
2023-04-13T10:33:11.158Z,94892.00
2023-04-13T10:34:11.150Z,94892.00
2023-04-13T10:35:11.171Z,94892.00
2023-04-13T10:36:10.214Z,94892.00
2023-04-13T10:37:11.251Z,94892.00
2023-04-13T10:38:11.287Z,94892.00
2023-04-13T10:39:11.383Z,94888.00
2023-04-13T10:40:11.334Z,94888.00
2023-04-13T10:41:11.343Z,94881.00
2023-04-13T10:42:11.417Z,94881.00
2023-04-13T10:43:11.442Z,94885.00
2023-04-13T10:44:11.463Z,94881.00
2023-04-13T10:45:11.476Z,94881.00
2023-04-13T10:46:11.464Z,94879.00
2023-04-13T10:47:11.056Z,94883.00
2023-04-13T10:48:11.562Z,94881.00
2023-04-13T10:49:11.582Z,94885.00
2023-04-13T10:50:10.583Z,94881.00
2023-04-13T10:51:11.607Z,94881.00
2023-04-13T10:52:11.659Z,94877.00
2023-04-13T10:53:11.641Z,94873.00
2023-04-13T10:54:10.682Z,94871.00
2023-04-13T10:55:10.755Z,94871.00
2023-04-13T10:56:11.711Z,94871.00
2023-04-13T10:57:10.924Z,94869.00
2023-04-13T10:58:10.693Z,94867.00
2023-04-13T10:59:10.709Z,94867.00
2023-04-13T11:00:11.693Z,94863.00
2023-04-13T11:01:11.687Z,94861.00
2023-04-13T11:02:10.743Z,94865.00
2023-04-13T11:03:11.891Z,94865.00
2023-04-13T11:05:10.685Z,94865.00
2023-04-13T11:06:10.670Z,94863.00
2023-04-13T11:07:11.685Z,94863.00
2023-04-13T11:08:10.673Z,94861.00
2023-04-13T11:09:13.757Z,94859.00
2023-04-13T11:10:11.670Z,94855.00
2023-04-13T11:11:14.885Z,94855.00
2023-04-13T11:12:11.638Z,94857.00
2023-04-13T11:13:10.696Z,94863.00
2023-04-13T11:14:10.619Z,94863.00
2023-04-13T11:15:11.629Z,94869.00
2023-04-13T11:16:11.694Z,94873.00
2023-04-13T11:17:11.716Z,94879.00
2023-04-13T11:18:11.624Z,94881.00
2023-04-13T11:19:10.589Z,94881.00
2023-04-13T11:20:11.589Z,94881.00
2023-04-13T11:21:11.583Z,94881.00
2023-04-13T11:22:13.548Z,94881.00
2023-04-13T11:23:11.579Z,94881.00
2023-04-13T11:24:10.560Z,94881.00
2023-04-13T11:25:10.558Z,94881.00
2023-04-13T11:26:11.548Z,94881.00
2023-04-13T11:27:11.557Z,94881.00
2023-04-13T11:28:11.524Z,94879.00
2023-04-13T11:29:11.531Z,94879.00
2023-04-13T11:30:10.544Z,94877.00
2023-04-13T11:31:10.515Z,94879.00
2023-04-13T11:32:10.520Z,94883.00
2023-04-13T11:33:11.530Z,94885.00
2023-04-13T11:34:11.502Z,94888.00
2023-04-13T11:35:11.481Z,94885.00
2023-04-13T11:36:11.490Z,94886.00
2023-04-13T11:37:11.930Z,94888.00
2023-04-13T11:38:11.470Z,94886.00
2023-04-13T11:39:11.471Z,94888.00
2023-04-13T11:40:11.532Z,94888.00
2023-04-13T11:41:16.899Z,94886.00
2023-04-13T11:42:11.445Z,94886.00
2023-04-13T11:43:11.475Z,94888.00
2023-04-13T11:44:11.418Z,94892.00
2023-04-13T11:45:10.418Z,94898.00
2023-04-13T11:46:11.501Z,94900.00
2023-04-13T11:47:11.417Z,94900.00
2023-04-13T11:48:10.409Z,94902.00
2023-04-13T11:49:11.400Z,94904.00
2023-04-13T11:50:11.604Z,94904.00
2023-04-13T11:51:10.355Z,94904.00
2023-04-13T11:52:11.379Z,94906.00
2023-04-13T11:53:10.369Z,94906.00
2023-04-13T11:54:11.358Z,94920.00
2023-04-13T11:55:21.408Z,94916.00
2023-04-13T11:56:11.365Z,94918.00
2023-04-13T11:57:11.324Z,94920.00
2023-04-13T11:58:10.319Z,94922.00
2023-04-13T11:59:11.337Z,94924.00
2023-04-13T12:00:11.336Z,94930.00
2023-04-13T12:01:14.248Z,94932.00
2023-04-13T12:02:20.856Z,94934.00
2023-04-13T12:03:27.954Z,94936.00
2023-04-13T12:04:16.054Z,94934.00
2023-04-13T12:05:11.477Z,94934.00
2023-04-13T12:06:11.464Z,94938.00
2023-04-13T12:07:11.566Z,94936.00
2023-04-13T12:08:12.052Z,94936.00
2023-04-13T12:09:14.664Z,94938.00
2023-04-13T12:10:22.112Z,94941.00
2023-04-13T12:12:46.218Z,94943.00
2023-04-13T12:14:15.093Z,94943.00
2023-04-13T12:15:22.908Z,94947.00
2023-04-13T12:16:17.647Z,94949.00
2023-04-13T12:17:26.178Z,94953.00
2023-04-13T12:18:15.311Z,94957.00
2023-04-13T12:19:13.697Z,94967.00
2023-04-13T12:20:12.339Z,94973.00
2023-04-13T12:21:11.233Z,94973.00
2023-04-13T12:22:12.229Z,94975.00
2023-04-13T12:23:21.877Z,94971.00
2023-04-13T12:25:11.798Z,94971.00
2023-04-13T12:27:18.310Z,94969.00
2023-04-13T12:28:11.141Z,94963.00
2023-04-13T12:29:11.128Z,94969.00
2023-04-13T12:30:10.236Z,94969.00
2023-04-13T12:31:11.201Z,94971.00
2023-04-13T12:32:11.115Z,94975.00
2023-04-13T12:33:10.113Z,94973.00
2023-04-13T12:34:11.099Z,94977.00
2023-04-13T12:35:11.091Z,94979.00
2023-04-13T12:36:11.098Z,94985.00
2023-04-13T12:37:10.167Z,94988.00
2023-04-13T12:38:11.219Z,94986.00
2023-04-13T12:39:11.271Z,94992.00
2023-04-13T12:40:11.357Z,94990.00
2023-04-13T12:41:11.419Z,94996.00
2023-04-13T12:42:10.464Z,94998.00
2023-04-13T12:43:10.522Z,94998.00
2023-04-13T12:44:11.603Z,94998.00
2023-04-13T12:45:11.662Z,95002.00
2023-04-13T12:46:10.725Z,95004.00
2023-04-13T12:47:11.913Z,95006.00
2023-04-13T12:48:11.881Z,95010.00
2023-04-13T12:49:11.941Z,95012.00
2023-04-13T12:50:12.040Z,95016.00
2023-04-13T12:51:12.060Z,95014.00
2023-04-13T12:52:12.124Z,95018.00
2023-04-13T12:53:11.190Z,95016.00
2023-04-13T12:54:12.260Z,95018.00
2023-04-13T12:55:12.321Z,95022.00
2023-04-13T12:56:12.377Z,95024.00
2023-04-13T12:57:12.441Z,95022.00
2023-04-13T12:58:12.521Z,95020.00
2023-04-13T12:59:12.565Z,95020.00
2023-04-13T13:00:12.668Z,95016.00
2023-04-13T13:01:11.747Z,95018.00
2023-04-13T13:02:12.785Z,95018.00
2023-04-13T13:03:14.543Z,95022.00
2023-04-13T13:04:12.898Z,95024.00
2023-04-13T13:05:12.795Z,95026.00
2023-04-13T13:06:12.789Z,95026.00
2023-04-13T13:07:12.787Z,95024.00
2023-04-13T13:08:11.787Z,95026.00
2023-04-13T13:09:12.797Z,95024.00
2023-04-13T13:10:26.346Z,95028.00
2023-04-13T13:11:12.757Z,95032.00
2023-04-13T13:12:12.772Z,95032.00
2023-04-13T13:13:11.747Z,95033.00
2023-04-13T13:14:12.742Z,95037.00
2023-04-13T13:15:11.736Z,95039.00
2023-04-13T13:16:12.762Z,95043.00
2023-04-13T13:17:12.704Z,95037.00
2023-04-13T13:18:12.698Z,95039.00
2023-04-13T13:19:12.713Z,95039.00
2023-04-13T13:20:12.685Z,95035.00
2023-04-13T13:21:12.696Z,95032.00
2023-04-13T13:22:12.667Z,95024.00
2023-04-13T13:23:13.441Z,95024.00
2023-04-13T13:24:11.662Z,95018.00
2023-04-13T13:25:11.683Z,95016.00
2023-04-13T13:26:22.947Z,95016.00
2023-04-13T13:27:48.396Z,95010.00
2023-04-13T13:28:14.841Z,95006.00
2023-04-13T13:29:11.620Z,95004.00
2023-04-13T13:30:12.623Z,95002.00
2023-04-13T13:31:12.600Z,95002.00
2023-04-13T13:32:12.637Z,95002.00
2023-04-13T13:33:12.779Z,95004.00
2023-04-13T13:34:12.579Z,95004.00
2023-04-13T13:35:12.627Z,95008.00
2023-04-13T13:36:12.561Z,95008.00
2023-04-13T13:37:11.555Z,95004.00
2023-04-13T13:38:11.553Z,95004.00
2023-04-13T13:39:11.567Z,95000.00
2023-04-13T13:40:12.544Z,94998.00
2023-04-13T13:41:12.553Z,94996.00
2023-04-13T13:42:12.518Z,94994.00
2023-04-13T13:43:12.532Z,94994.00
2023-04-13T13:44:11.543Z,94992.00
2023-04-13T13:45:12.512Z,94994.00
2023-04-13T13:46:11.577Z,94994.00
2023-04-13T13:47:11.510Z,95000.00
2023-04-13T13:48:12.497Z,95000.00
2023-04-13T13:49:11.480Z,95004.00
2023-04-13T13:50:12.483Z,95004.00
2023-04-13T13:51:11.487Z,95010.00
2023-04-13T13:52:11.470Z,95008.00
2023-04-13T13:53:12.481Z,95002.00
2023-04-13T13:54:11.599Z,95000.00
2023-04-13T13:55:11.585Z,94998.00
2023-04-13T13:56:11.633Z,94998.00
2023-04-13T13:57:12.697Z,94998.00
2023-04-13T13:58:12.754Z,95002.00
2023-04-13T13:59:11.852Z,95004.00
2023-04-13T14:00:12.868Z,95008.00
2023-04-13T14:01:11.932Z,95012.00
2023-04-13T14:02:12.033Z,95008.00
2023-04-13T14:03:12.235Z,95006.00
2023-04-13T14:04:12.141Z,95002.00
2023-04-13T14:05:12.138Z,94996.00
2023-04-13T14:06:13.201Z,94992.00
2023-04-13T14:07:13.252Z,94988.00
2023-04-13T14:08:12.310Z,94986.00
2023-04-13T14:09:13.343Z,94985.00
2023-04-13T14:10:13.398Z,94986.00
2023-04-13T14:11:13.472Z,94986.00
2023-04-13T14:12:13.509Z,94986.00
2023-04-13T14:13:13.560Z,94986.00
2023-04-13T14:14:21.152Z,94985.00
2023-04-13T14:15:13.612Z,94983.00
2023-04-13T14:16:13.612Z,94979.00
2023-04-13T14:17:13.613Z,94979.00
2023-04-13T14:18:13.608Z,94981.00
2023-04-13T14:19:12.580Z,94985.00
2023-04-13T14:20:13.568Z,94988.00
2023-04-13T14:21:12.551Z,94988.00
2023-04-13T14:22:13.578Z,94988.00
2023-04-13T14:23:13.557Z,94988.00
2023-04-13T14:24:12.550Z,94985.00
2023-04-13T14:25:13.538Z,94983.00
2023-04-13T14:26:13.601Z,94979.00
2023-04-13T14:27:13.643Z,94975.00
2023-04-13T14:28:13.738Z,94971.00
2023-04-13T14:29:13.758Z,94961.00
2023-04-13T14:30:12.806Z,94955.00
2023-04-13T14:31:13.880Z,94943.00
2023-04-13T14:32:12.885Z,94932.00
2023-04-13T14:33:13.950Z,94916.00
2023-04-13T14:34:12.979Z,94896.00
2023-04-13T14:35:13.009Z,94885.00
2023-04-13T14:36:13.058Z,94885.00
2023-04-13T14:37:13.125Z,94892.00
2023-04-13T14:38:14.187Z,94902.00
2023-04-13T14:39:14.185Z,94918.00
2023-04-13T14:40:14.219Z,94926.00
2023-04-13T14:41:13.253Z,94930.00
2023-04-13T14:42:14.315Z,94932.00
2023-04-13T14:43:14.324Z,94939.00
2023-04-13T14:44:14.321Z,94938.00
2023-04-13T14:45:14.375Z,94947.00
2023-04-13T14:46:14.380Z,94953.00
2023-04-13T14:47:14.512Z,94957.00
2023-04-13T14:48:14.406Z,94961.00
2023-04-13T14:49:14.506Z,94965.00
2023-04-13T14:50:13.489Z,94969.00
2023-04-13T14:51:14.527Z,94975.00
2023-04-13T14:52:14.853Z,94975.00
2023-04-13T14:53:13.595Z,94975.00
2023-04-13T14:54:13.707Z,94975.00
2023-04-13T14:55:14.641Z,94975.00
2023-04-13T14:56:14.593Z,94977.00
2023-04-13T14:57:14.653Z,94971.00
2023-04-13T14:58:13.593Z,94969.00
2023-04-13T14:59:13.611Z,94965.00
2023-04-13T15:00:14.622Z,94965.00
2023-04-13T15:01:13.678Z,94961.00
2023-04-13T15:02:14.871Z,94959.00
2023-04-13T15:03:15.259Z,94961.00
2023-04-13T15:04:13.945Z,94963.00
2023-04-13T15:05:15.024Z,94965.00
2023-04-13T15:06:14.997Z,94969.00
2023-04-13T15:07:14.153Z,94973.00
2023-04-13T15:08:15.110Z,94977.00
2023-04-13T15:09:15.197Z,94977.00
2023-04-13T15:10:15.246Z,94975.00
2023-04-13T15:11:14.311Z,94973.00
2023-04-13T15:12:15.406Z,94971.00
2023-04-13T15:13:14.488Z,94969.00
2023-04-13T15:14:15.472Z,94967.00
2023-04-13T15:15:15.531Z,94965.00
2023-04-13T15:16:15.724Z,94965.00
2023-04-13T15:17:15.674Z,94963.00
2023-04-13T15:18:14.830Z,94963.00
2023-04-13T15:19:14.781Z,94967.00
2023-04-13T15:20:15.847Z,94965.00
2023-04-13T15:21:14.912Z,94967.00
2023-04-13T15:22:14.971Z,94967.00
2023-04-13T15:23:15.989Z,94965.00
2023-04-13T15:24:16.116Z,94967.00
2023-04-13T15:25:15.168Z,94963.00
2023-04-13T15:26:16.176Z,94967.00
2023-04-13T15:27:16.276Z,94965.00
2023-04-13T15:28:16.268Z,94961.00
2023-04-13T15:29:15.289Z,94961.00
